sensor_id;sensor_type;location;lat;lon;timestamp;P1;durP1;ratioP1;P2;durP2;ratioP2
78873;SDS011;68250;43.514;1.494;2023-09-12T00:01:03;6.68;;;4.30;;
78873;SDS011;68250;43.514;1.494;2023-09-12T00:03:30;6.10;;;3.17;;
78873;SDS011;68250;43.514;1.494;2023-09-12T00:05:56;6.07;;;3.15;;
78873;SDS011;68250;43.514;1.494;2023-09-12T00:08:23;6.38;;;2.80;;
78873;SDS011;68250;43.514;1.494;2023-09-12T00:10:59;5.93;;;2.40;;
78873;SDS011;68250;43.514;1.494;2023-09-12T00:13:24;7.10;;;2.55;;
78873;SDS011;68250;43.514;1.494;2023-09-12T00:15:50;7.63;;;2.40;;
78873;SDS011;68250;43.514;1.494;2023-09-12T00:18:15;4.55;;;2.38;;
78873;SDS011;68250;43.514;1.494;2023-09-12T00:20:41;6.93;;;2.30;;
78873;SDS011;68250;43.514;1.494;2023-09-12T00:23:06;6.17;;;2.10;;
78873;SDS011;68250;43.514;1.494;2023-09-12T00:25:32;6.78;;;2.60;;
78873;SDS011;68250;43.514;1.494;2023-09-12T00:27:57;5.70;;;2.43;;
78873;SDS011;68250;43.514;1.494;2023-09-12T00:30:23;6.45;;;1.98;;
78873;SDS011;68250;43.514;1.494;2023-09-12T00:32:49;6.80;;;2.33;;
78873;SDS011;68250;43.514;1.494;2023-09-12T00:35:14;4.83;;;2.30;;
78873;SDS011;68250;43.514;1.494;2023-09-12T00:37:40;6.18;;;2.45;;
78873;SDS011;68250;43.514;1.494;2023-09-12T00:40:06;5.43;;;2.10;;
78873;SDS011;68250;43.514;1.494;2023-09-12T00:42:32;5.65;;;2.10;;
78873;SDS011;68250;43.514;1.494;2023-09-12T00:44:57;6.23;;;1.90;;
78873;SDS011;68250;43.514;1.494;2023-09-12T00:47:23;5.05;;;2.42;;
78873;SDS011;68250;43.514;1.494;2023-09-12T00:49:49;5.43;;;2.30;;
78873;SDS011;68250;43.514;1.494;2023-09-12T00:52:15;5.28;;;2.35;;
78873;SDS011;68250;43.514;1.494;2023-09-12T00:54:42;6.60;;;2.72;;
78873;SDS011;68250;43.514;1.494;2023-09-12T00:57:07;8.10;;;2.10;;
78873;SDS011;68250;43.514;1.494;2023-09-12T00:59:33;5.03;;;2.10;;
78873;SDS011;68250;43.514;1.494;2023-09-12T01:01:59;6.20;;;2.27;;
78873;SDS011;68250;43.514;1.494;2023-09-12T01:04:25;4.40;;;2.15;;
78873;SDS011;68250;43.514;1.494;2023-09-12T01:06:51;6.47;;;2.50;;
78873;SDS011;68250;43.514;1.494;2023-09-12T01:09:17;4.50;;;2.07;;
78873;SDS011;68250;43.514;1.494;2023-09-12T01:11:42;5.55;;;2.10;;
78873;SDS011;68250;43.514;1.494;2023-09-12T01:14:08;5.53;;;2.17;;
78873;SDS011;68250;43.514;1.494;2023-09-12T01:16:34;5.78;;;2.50;;
78873;SDS011;68250;43.514;1.494;2023-09-12T01:18:59;5.47;;;2.20;;
78873;SDS011;68250;43.514;1.494;2023-09-12T01:21:34;5.00;;;2.10;;
78873;SDS011;68250;43.514;1.494;2023-09-12T01:24:28;4.50;;;2.10;;
78873;SDS011;68250;43.514;1.494;2023-09-12T01:29:46;6.18;;;2.13;;
78873;SDS011;68250;43.514;1.494;2023-09-12T01:32:15;8.07;;;1.93;;
78873;SDS011;68250;43.514;1.494;2023-09-12T01:34:42;6.80;;;2.00;;
78873;SDS011;68250;43.514;1.494;2023-09-12T01:37:07;5.88;;;2.30;;
78873;SDS011;68250;43.514;1.494;2023-09-12T01:39:33;7.03;;;2.57;;
78873;SDS011;68250;43.514;1.494;2023-09-12T01:41:58;4.80;;;2.40;;
78873;SDS011;68250;43.514;1.494;2023-09-12T01:44:25;5.45;;;1.92;;
78873;SDS011;68250;43.514;1.494;2023-09-12T01:46:53;6.47;;;2.53;;
78873;SDS011;68250;43.514;1.494;2023-09-12T01:49:21;4.93;;;2.35;;
78873;SDS011;68250;43.514;1.494;2023-09-12T01:51:48;5.10;;;2.10;;
78873;SDS011;68250;43.514;1.494;2023-09-12T01:54:14;7.18;;;2.50;;
78873;SDS011;68250;43.514;1.494;2023-09-12T01:56:40;5.93;;;2.45;;
78873;SDS011;68250;43.514;1.494;2023-09-12T01:59:06;6.27;;;2.57;;
78873;SDS011;68250;43.514;1.494;2023-09-12T02:01:31;4.70;;;2.45;;
78873;SDS011;68250;43.514;1.494;2023-09-12T02:03:57;5.60;;;2.73;;
78873;SDS011;68250;43.514;1.494;2023-09-12T02:06:23;5.57;;;2.42;;
78873;SDS011;68250;43.514;1.494;2023-09-12T02:08:48;8.13;;;3.07;;
78873;SDS011;68250;43.514;1.494;2023-09-12T02:11:14;6.80;;;2.80;;
78873;SDS011;68250;43.514;1.494;2023-09-12T02:13:39;6.50;;;2.67;;
78873;SDS011;68250;43.514;1.494;2023-09-12T02:16:05;5.33;;;2.83;;
78873;SDS011;68250;43.514;1.494;2023-09-12T02:18:31;5.20;;;2.83;;
78873;SDS011;68250;43.514;1.494;2023-09-12T02:20:58;6.47;;;3.13;;
78873;SDS011;68250;43.514;1.494;2023-09-12T02:23:23;7.47;;;3.30;;
78873;SDS011;68250;43.514;1.494;2023-09-12T02:25:49;8.73;;;3.13;;
78873;SDS011;68250;43.514;1.494;2023-09-12T02:28:14;6.72;;;3.20;;
78873;SDS011;68250;43.514;1.494;2023-09-12T02:30:40;5.63;;;3.00;;
78873;SDS011;68250;43.514;1.494;2023-09-12T02:33:06;5.80;;;2.97;;
78873;SDS011;68250;43.514;1.494;2023-09-12T02:35:31;6.40;;;3.35;;
78873;SDS011;68250;43.514;1.494;2023-09-12T02:37:57;6.47;;;3.00;;
78873;SDS011;68250;43.514;1.494;2023-09-12T02:40:22;7.13;;;3.30;;
78873;SDS011;68250;43.514;1.494;2023-09-12T02:42:48;7.53;;;3.30;;
78873;SDS011;68250;43.514;1.494;2023-09-12T02:45:13;5.63;;;2.93;;
78873;SDS011;68250;43.514;1.494;2023-09-12T02:47:39;6.82;;;3.15;;
78873;SDS011;68250;43.514;1.494;2023-09-12T02:50:05;6.77;;;3.40;;
78873;SDS011;68250;43.514;1.494;2023-09-12T02:52:31;6.88;;;2.97;;
78873;SDS011;68250;43.514;1.494;2023-09-12T02:54:56;10.67;;;3.43;;
78873;SDS011;68250;43.514;1.494;2023-09-12T02:57:22;6.43;;;3.70;;
78873;SDS011;68250;43.514;1.494;2023-09-12T02:59:47;6.97;;;3.78;;
78873;SDS011;68250;43.514;1.494;2023-09-12T03:02:13;6.47;;;3.23;;
78873;SDS011;68250;43.514;1.494;2023-09-12T03:04:38;7.03;;;3.27;;
78873;SDS011;68250;43.514;1.494;2023-09-12T03:07:04;6.07;;;3.53;;
78873;SDS011;68250;43.514;1.494;2023-09-12T03:09:29;7.33;;;3.30;;
78873;SDS011;68250;43.514;1.494;2023-09-12T03:11:55;6.90;;;3.07;;
78873;SDS011;68250;43.514;1.494;2023-09-12T03:14:20;6.25;;;3.35;;
78873;SDS011;68250;43.514;1.494;2023-09-12T03:16:46;8.53;;;3.50;;
78873;SDS011;68250;43.514;1.494;2023-09-12T03:19:12;8.43;;;3.57;;
78873;SDS011;68250;43.514;1.494;2023-09-12T03:21:37;6.88;;;3.10;;
78873;SDS011;68250;43.514;1.494;2023-09-12T03:24:04;7.43;;;3.50;;
78873;SDS011;68250;43.514;1.494;2023-09-12T03:26:30;7.07;;;3.38;;
78873;SDS011;68250;43.514;1.494;2023-09-12T03:28:55;7.37;;;3.33;;
78873;SDS011;68250;43.514;1.494;2023-09-12T03:31:21;5.97;;;3.00;;
78873;SDS011;68250;43.514;1.494;2023-09-12T03:33:47;7.20;;;3.15;;
78873;SDS011;68250;43.514;1.494;2023-09-12T03:36:15;6.45;;;3.50;;
78873;SDS011;68250;43.514;1.494;2023-09-12T03:38:42;7.00;;;3.10;;
78873;SDS011;68250;43.514;1.494;2023-09-12T03:41:08;6.45;;;3.30;;
78873;SDS011;68250;43.514;1.494;2023-09-12T03:43:34;6.50;;;3.70;;
78873;SDS011;68250;43.514;1.494;2023-09-12T03:45:59;5.87;;;3.50;;
78873;SDS011;68250;43.514;1.494;2023-09-12T03:48:25;6.63;;;3.27;;
78873;SDS011;68250;43.514;1.494;2023-09-12T03:50:51;8.13;;;3.17;;
78873;SDS011;68250;43.514;1.494;2023-09-12T03:53:16;7.57;;;3.20;;
78873;SDS011;68250;43.514;1.494;2023-09-12T03:55:42;6.70;;;3.50;;
78873;SDS011;68250;43.514;1.494;2023-09-12T03:58:08;6.80;;;3.30;;
78873;SDS011;68250;43.514;1.494;2023-09-12T04:00:34;6.82;;;3.47;;
78873;SDS011;68250;43.514;1.494;2023-09-12T04:02:59;6.83;;;3.50;;
78873;SDS011;68250;43.514;1.494;2023-09-12T04:05:25;7.38;;;3.35;;
78873;SDS011;68250;43.514;1.494;2023-09-12T04:07:51;7.43;;;3.27;;
78873;SDS011;68250;43.514;1.494;2023-09-12T04:10:17;5.90;;;3.17;;
78873;SDS011;68250;43.514;1.494;2023-09-12T04:12:44;5.70;;;3.25;;
78873;SDS011;68250;43.514;1.494;2023-09-12T04:15:10;7.03;;;3.50;;
78873;SDS011;68250;43.514;1.494;2023-09-12T04:17:35;6.47;;;3.67;;
78873;SDS011;68250;43.514;1.494;2023-09-12T04:20:01;6.57;;;3.30;;
78873;SDS011;68250;43.514;1.494;2023-09-12T04:22:26;7.07;;;3.70;;
78873;SDS011;68250;43.514;1.494;2023-09-12T04:24:53;6.25;;;3.13;;
78873;SDS011;68250;43.514;1.494;2023-09-12T04:27:19;7.60;;;3.77;;
78873;SDS011;68250;43.514;1.494;2023-09-12T04:29:44;7.25;;;3.20;;
78873;SDS011;68250;43.514;1.494;2023-09-12T04:32:10;7.27;;;3.43;;
78873;SDS011;68250;43.514;1.494;2023-09-12T04:34:36;7.47;;;3.53;;
78873;SDS011;68250;43.514;1.494;2023-09-12T04:37:01;7.37;;;3.07;;
78873;SDS011;68250;43.514;1.494;2023-09-12T04:39:27;6.75;;;3.47;;
78873;SDS011;68250;43.514;1.494;2023-09-12T04:41:53;6.05;;;3.42;;
78873;SDS011;68250;43.514;1.494;2023-09-12T04:44:19;5.70;;;3.23;;
78873;SDS011;68250;43.514;1.494;2023-09-12T04:46:44;5.80;;;3.37;;
78873;SDS011;68250;43.514;1.494;2023-09-12T04:49:11;5.68;;;3.58;;
78873;SDS011;68250;43.514;1.494;2023-09-12T04:51:36;5.90;;;3.40;;
78873;SDS011;68250;43.514;1.494;2023-09-12T04:54:02;7.80;;;3.63;;
78873;SDS011;68250;43.514;1.494;2023-09-12T04:56:28;5.93;;;3.63;;
78873;SDS011;68250;43.514;1.494;2023-09-12T04:58:54;8.17;;;3.40;;
78873;SDS011;68250;43.514;1.494;2023-09-12T05:01:19;6.17;;;3.30;;
78873;SDS011;68250;43.514;1.494;2023-09-12T05:03:45;8.13;;;3.55;;
78873;SDS011;68250;43.514;1.494;2023-09-12T05:06:11;8.93;;;3.40;;
78873;SDS011;68250;43.514;1.494;2023-09-12T05:08:37;6.65;;;3.67;;
78873;SDS011;68250;43.514;1.494;2023-09-12T05:11:03;6.13;;;3.53;;
78873;SDS011;68250;43.514;1.494;2023-09-12T05:13:29;8.33;;;3.70;;
78873;SDS011;68250;43.514;1.494;2023-09-12T05:15:55;7.72;;;3.42;;
78873;SDS011;68250;43.514;1.494;2023-09-12T05:18:21;6.05;;;3.28;;
78873;SDS011;68250;43.514;1.494;2023-09-12T05:20:47;8.75;;;4.05;;
78873;SDS011;68250;43.514;1.494;2023-09-12T05:23:13;6.27;;;3.47;;
78873;SDS011;68250;43.514;1.494;2023-09-12T05:25:38;6.72;;;3.33;;
78873;SDS011;68250;43.514;1.494;2023-09-12T05:28:04;6.20;;;3.63;;
78873;SDS011;68250;43.514;1.494;2023-09-12T05:30:30;7.72;;;3.30;;
78873;SDS011;68250;43.514;1.494;2023-09-12T05:32:56;7.83;;;3.50;;
78873;SDS011;68250;43.514;1.494;2023-09-12T05:35:21;6.03;;;3.38;;
78873;SDS011;68250;43.514;1.494;2023-09-12T05:37:47;8.07;;;3.77;;
78873;SDS011;68250;43.514;1.494;2023-09-12T05:40:13;6.28;;;3.53;;
78873;SDS011;68250;43.514;1.494;2023-09-12T05:42:38;5.80;;;3.30;;
78873;SDS011;68250;43.514;1.494;2023-09-12T05:45:05;7.60;;;3.67;;
78873;SDS011;68250;43.514;1.494;2023-09-12T05:47:32;7.30;;;3.63;;
78873;SDS011;68250;43.514;1.494;2023-09-12T05:49:58;7.87;;;3.90;;
78873;SDS011;68250;43.514;1.494;2023-09-12T05:52:24;6.85;;;3.35;;
78873;SDS011;68250;43.514;1.494;2023-09-12T05:54:50;5.93;;;3.50;;
78873;SDS011;68250;43.514;1.494;2023-09-12T05:57:15;6.88;;;3.47;;
78873;SDS011;68250;43.514;1.494;2023-09-12T05:59:41;5.90;;;3.27;;
78873;SDS011;68250;43.514;1.494;2023-09-12T06:02:07;9.30;;;4.03;;
78873;SDS011;68250;43.514;1.494;2023-09-12T06:04:34;7.67;;;4.37;;
78873;SDS011;68250;43.514;1.494;2023-09-12T06:07:03;8.75;;;4.63;;
78873;SDS011;68250;43.514;1.494;2023-09-12T06:09:29;9.05;;;4.70;;
78873;SDS011;68250;43.514;1.494;2023-09-12T06:11:55;9.30;;;4.27;;
78873;SDS011;68250;43.514;1.494;2023-09-12T06:14:20;9.57;;;4.80;;
78873;SDS011;68250;43.514;1.494;2023-09-12T06:16:46;10.40;;;4.80;;
78873;SDS011;68250;43.514;1.494;2023-09-12T06:19:12;8.77;;;4.53;;
78873;SDS011;68250;43.514;1.494;2023-09-12T06:21:39;8.77;;;3.97;;
78873;SDS011;68250;43.514;1.494;2023-09-12T06:24:09;9.35;;;4.18;;
78873;SDS011;68250;43.514;1.494;2023-09-12T06:26:36;7.57;;;4.18;;
78873;SDS011;68250;43.514;1.494;2023-09-12T06:29:02;7.60;;;4.15;;
78873;SDS011;68250;43.514;1.494;2023-09-12T06:31:28;8.63;;;4.10;;
78873;SDS011;68250;43.514;1.494;2023-09-12T06:33:53;8.57;;;4.00;;
78873;SDS011;68250;43.514;1.494;2023-09-12T06:36:19;8.27;;;3.60;;
78873;SDS011;68250;43.514;1.494;2023-09-12T06:38:44;7.55;;;3.78;;
78873;SDS011;68250;43.514;1.494;2023-09-12T06:41:10;5.67;;;3.50;;
78873;SDS011;68250;43.514;1.494;2023-09-12T06:43:35;5.50;;;3.20;;
78873;SDS011;68250;43.514;1.494;2023-09-12T06:46:01;8.53;;;3.30;;
78873;SDS011;68250;43.514;1.494;2023-09-12T06:48:26;6.15;;;3.47;;
78873;SDS011;68250;43.514;1.494;2023-09-12T06:50:53;7.43;;;3.37;;
78873;SDS011;68250;43.514;1.494;2023-09-12T06:53:19;6.85;;;3.38;;
78873;SDS011;68250;43.514;1.494;2023-09-12T06:55:44;7.37;;;3.50;;
78873;SDS011;68250;43.514;1.494;2023-09-12T06:58:10;6.32;;;3.60;;
78873;SDS011;68250;43.514;1.494;2023-09-12T07:00:36;7.27;;;3.10;;
78873;SDS011;68250;43.514;1.494;2023-09-12T07:03:02;6.18;;;3.40;;
78873;SDS011;68250;43.514;1.494;2023-09-12T07:05:27;6.10;;;3.43;;
78873;SDS011;68250;43.514;1.494;2023-09-12T07:07:53;5.45;;;3.20;;
78873;SDS011;68250;43.514;1.494;2023-09-12T07:10:18;7.43;;;3.47;;
78873;SDS011;68250;43.514;1.494;2023-09-12T07:12:44;7.85;;;3.13;;
78873;SDS011;68250;43.514;1.494;2023-09-12T07:15:10;6.23;;;3.33;;
78873;SDS011;68250;43.514;1.494;2023-09-12T07:17:36;7.72;;;3.65;;
78873;SDS011;68250;43.514;1.494;2023-09-12T07:20:01;5.70;;;3.33;;
78873;SDS011;68250;43.514;1.494;2023-09-12T07:22:27;7.00;;;3.50;;
78873;SDS011;68250;43.514;1.494;2023-09-12T07:24:52;8.32;;;3.78;;
78873;SDS011;68250;43.514;1.494;2023-09-12T07:27:19;5.65;;;3.30;;
78873;SDS011;68250;43.514;1.494;2023-09-12T07:29:44;7.93;;;3.70;;
78873;SDS011;68250;43.514;1.494;2023-09-12T07:32:10;8.33;;;3.43;;
78873;SDS011;68250;43.514;1.494;2023-09-12T07:34:35;8.03;;;3.60;;
78873;SDS011;68250;43.514;1.494;2023-09-12T07:37:03;6.68;;;3.42;;
78873;SDS011;68250;43.514;1.494;2023-09-12T07:39:28;5.63;;;3.58;;
78873;SDS011;68250;43.514;1.494;2023-09-12T07:41:54;7.18;;;3.25;;
78873;SDS011;68250;43.514;1.494;2023-09-12T07:44:20;7.33;;;3.20;;
78873;SDS011;68250;43.514;1.494;2023-09-12T07:46:46;7.10;;;3.40;;
78873;SDS011;68250;43.514;1.494;2023-09-12T07:49:11;7.00;;;3.60;;
78873;SDS011;68250;43.514;1.494;2023-09-12T07:51:37;6.68;;;3.20;;
78873;SDS011;68250;43.514;1.494;2023-09-12T07:54:02;7.83;;;3.57;;
78873;SDS011;68250;43.514;1.494;2023-09-12T07:56:28;9.50;;;3.40;;
78873;SDS011;68250;43.514;1.494;2023-09-12T07:58:54;6.50;;;3.03;;
78873;SDS011;68250;43.514;1.494;2023-09-12T08:01:20;5.57;;;3.17;;
78873;SDS011;68250;43.514;1.494;2023-09-12T08:03:46;7.70;;;3.57;;
78873;SDS011;68250;43.514;1.494;2023-09-12T08:06:12;5.82;;;3.35;;
78873;SDS011;68250;43.514;1.494;2023-09-12T08:08:38;7.50;;;3.57;;
78873;SDS011;68250;43.514;1.494;2023-09-12T08:11:03;9.43;;;3.40;;
78873;SDS011;68250;43.514;1.494;2023-09-12T08:13:29;5.77;;;3.57;;
78873;SDS011;68250;43.514;1.494;2023-09-12T08:15:55;6.88;;;3.53;;
78873;SDS011;68250;43.514;1.494;2023-09-12T08:18:21;7.38;;;3.70;;
78873;SDS011;68250;43.514;1.494;2023-09-12T08:20:51;7.55;;;3.50;;
78873;SDS011;68250;43.514;1.494;2023-09-12T08:23:17;8.57;;;3.63;;
78873;SDS011;68250;43.514;1.494;2023-09-12T08:25:42;6.90;;;3.80;;
78873;SDS011;68250;43.514;1.494;2023-09-12T08:28:08;6.97;;;3.97;;
78873;SDS011;68250;43.514;1.494;2023-09-12T08:30:33;6.72;;;3.60;;
78873;SDS011;68250;43.514;1.494;2023-09-12T08:32:59;6.67;;;3.60;;
78873;SDS011;68250;43.514;1.494;2023-09-12T08:35:27;6.97;;;3.83;;
78873;SDS011;68250;43.514;1.494;2023-09-12T08:37:53;10.50;;;3.80;;
78873;SDS011;68250;43.514;1.494;2023-09-12T08:40:19;7.72;;;4.03;;
78873;SDS011;68250;43.514;1.494;2023-09-12T08:42:44;8.77;;;3.73;;
78873;SDS011;68250;43.514;1.494;2023-09-12T08:45:14;8.90;;;3.78;;
78873;SDS011;68250;43.514;1.494;2023-09-12T08:47:41;7.13;;;3.95;;
78873;SDS011;68250;43.514;1.494;2023-09-12T08:50:14;6.50;;;4.07;;
78873;SDS011;68250;43.514;1.494;2023-09-12T08:52:41;7.00;;;3.83;;
78873;SDS011;68250;43.514;1.494;2023-09-12T08:55:08;8.77;;;4.30;;
78873;SDS011;68250;43.514;1.494;2023-09-12T08:57:36;7.30;;;3.78;;
78873;SDS011;68250;43.514;1.494;2023-09-12T09:00:03;8.00;;;4.07;;
78873;SDS011;68250;43.514;1.494;2023-09-12T09:02:34;7.57;;;4.40;;
78873;SDS011;68250;43.514;1.494;2023-09-12T09:05:04;7.50;;;4.32;;
78873;SDS011;68250;43.514;1.494;2023-09-12T09:07:33;6.50;;;3.40;;
78873;SDS011;68250;43.514;1.494;2023-09-12T09:10:04;6.78;;;3.88;;
78873;SDS011;68250;43.514;1.494;2023-09-12T09:12:31;10.25;;;3.97;;
78873;SDS011;68250;43.514;1.494;2023-09-12T09:14:57;11.30;;;4.63;;
78873;SDS011;68250;43.514;1.494;2023-09-12T09:17:23;10.50;;;5.45;;
78873;SDS011;68250;43.514;1.494;2023-09-12T09:19:49;9.23;;;5.57;;
78873;SDS011;68250;43.514;1.494;2023-09-12T09:22:14;10.10;;;6.07;;
78873;SDS011;68250;43.514;1.494;2023-09-12T09:24:40;10.93;;;6.50;;
78873;SDS011;68250;43.514;1.494;2023-09-12T09:27:05;16.73;;;6.30;;
78873;SDS011;68250;43.514;1.494;2023-09-12T09:29:31;15.43;;;5.90;;
78873;SDS011;68250;43.514;1.494;2023-09-12T09:32:01;12.45;;;6.13;;
78873;SDS011;68250;43.514;1.494;2023-09-12T09:34:26;15.48;;;7.07;;
78873;SDS011;68250;43.514;1.494;2023-09-12T09:36:56;11.90;;;6.45;;
78873;SDS011;68250;43.514;1.494;2023-09-12T09:39:25;9.80;;;5.63;;
78873;SDS011;68250;43.514;1.494;2023-09-12T09:41:54;11.30;;;6.32;;
78873;SDS011;68250;43.514;1.494;2023-09-12T09:44:21;13.23;;;6.72;;
78873;SDS011;68250;43.514;1.494;2023-09-12T09:46:50;11.88;;;6.80;;
78873;SDS011;68250;43.514;1.494;2023-09-12T09:49:19;14.90;;;6.20;;
78873;SDS011;68250;43.514;1.494;2023-09-12T09:51:45;11.83;;;5.77;;
78873;SDS011;68250;43.514;1.494;2023-09-12T09:54:14;10.23;;;5.40;;
78873;SDS011;68250;43.514;1.494;2023-09-12T09:59:17;9.02;;;5.05;;
78873;SDS011;68250;43.514;1.494;2023-09-12T10:01:45;9.20;;;4.80;;
78873;SDS011;68250;43.514;1.494;2023-09-12T10:04:11;10.30;;;5.20;;
78873;SDS011;68250;43.514;1.494;2023-09-12T10:06:37;9.02;;;4.78;;
78873;SDS011;68250;43.514;1.494;2023-09-12T10:09:11;8.20;;;4.75;;
78873;SDS011;68250;43.514;1.494;2023-09-12T10:11:39;9.80;;;4.70;;
78873;SDS011;68250;43.514;1.494;2023-09-12T10:14:06;10.40;;;4.67;;
78873;SDS011;68250;43.514;1.494;2023-09-12T10:16:33;7.93;;;4.85;;
78873;SDS011;68250;43.514;1.494;2023-09-12T10:21:31;9.55;;;5.00;;
78873;SDS011;68250;43.514;1.494;2023-09-12T10:23:59;8.57;;;4.88;;
78873;SDS011;68250;43.514;1.494;2023-09-12T10:26:26;8.87;;;5.03;;
78873;SDS011;68250;43.514;1.494;2023-09-12T10:28:51;8.60;;;4.80;;
78873;SDS011;68250;43.514;1.494;2023-09-12T10:31:17;8.20;;;4.93;;
78873;SDS011;68250;43.514;1.494;2023-09-12T10:33:43;6.50;;;4.38;;
78873;SDS011;68250;43.514;1.494;2023-09-12T10:36:09;8.52;;;4.50;;
78873;SDS011;68250;43.514;1.494;2023-09-12T10:38:43;9.77;;;4.70;;
78873;SDS011;68250;43.514;1.494;2023-09-12T10:41:12;6.77;;;4.20;;
78873;SDS011;68250;43.514;1.494;2023-09-12T10:43:39;9.02;;;4.40;;
78873;SDS011;68250;43.514;1.494;2023-09-12T10:46:06;10.30;;;4.75;;
78873;SDS011;68250;43.514;1.494;2023-09-12T10:48:32;9.18;;;4.57;;
78873;SDS011;68250;43.514;1.494;2023-09-12T10:50:58;9.45;;;4.88;;
78873;SDS011;68250;43.514;1.494;2023-09-12T10:53:24;8.00;;;4.43;;
78873;SDS011;68250;43.514;1.494;2023-09-12T10:55:58;8.95;;;4.70;;
78873;SDS011;68250;43.514;1.494;2023-09-12T10:58:33;8.98;;;5.00;;
78873;SDS011;68250;43.514;1.494;2023-09-12T11:03:51;9.90;;;4.35;;
78873;SDS011;68250;43.514;1.494;2023-09-12T11:06:28;10.07;;;4.87;;
78873;SDS011;68250;43.514;1.494;2023-09-12T11:11:38;11.80;;;5.28;;
78873;SDS011;68250;43.514;1.494;2023-09-12T11:14:05;9.63;;;5.47;;
78873;SDS011;68250;43.514;1.494;2023-09-12T11:16:31;9.73;;;5.13;;
78873;SDS011;68250;43.514;1.494;2023-09-12T11:21:50;7.72;;;4.82;;
78873;SDS011;68250;43.514;1.494;2023-09-12T11:24:17;9.95;;;4.97;;
78873;SDS011;68250;43.514;1.494;2023-09-12T11:27:02;9.68;;;4.63;;
78873;SDS011;68250;43.514;1.494;2023-09-12T11:29:36;11.15;;;4.53;;
78873;SDS011;68250;43.514;1.494;2023-09-12T11:32:04;7.07;;;4.40;;
78873;SDS011;68250;43.514;1.494;2023-09-12T11:34:35;8.85;;;4.32;;
78873;SDS011;68250;43.514;1.494;2023-09-12T11:37:08;7.63;;;4.18;;
78873;SDS011;68250;43.514;1.494;2023-09-12T11:39:35;11.75;;;4.20;;
78873;SDS011;68250;43.514;1.494;2023-09-12T11:42:02;8.48;;;4.22;;
78873;SDS011;68250;43.514;1.494;2023-09-12T11:44:28;8.77;;;3.80;;
78873;SDS011;68250;43.514;1.494;2023-09-12T11:47:01;8.05;;;3.75;;
78873;SDS011;68250;43.514;1.494;2023-09-12T11:49:41;6.32;;;3.55;;
78873;SDS011;68250;43.514;1.494;2023-09-12T11:52:10;8.20;;;3.90;;
78873;SDS011;68250;43.514;1.494;2023-09-12T11:54:38;6.88;;;3.55;;
78873;SDS011;68250;43.514;1.494;2023-09-12T11:57:04;7.47;;;3.80;;
78873;SDS011;68250;43.514;1.494;2023-09-12T11:59:31;9.60;;;4.05;;
78873;SDS011;68250;43.514;1.494;2023-09-12T12:01:56;8.02;;;3.85;;
78873;SDS011;68250;43.514;1.494;2023-09-12T12:04:23;8.50;;;3.87;;
78873;SDS011;68250;43.514;1.494;2023-09-12T12:06:50;7.07;;;3.80;;
78873;SDS011;68250;43.514;1.494;2023-09-12T12:09:17;6.22;;;3.88;;
78873;SDS011;68250;43.514;1.494;2023-09-12T12:11:44;6.53;;;4.00;;
78873;SDS011;68250;43.514;1.494;2023-09-12T12:14:13;8.68;;;4.22;;
78873;SDS011;68250;43.514;1.494;2023-09-12T12:16:41;10.67;;;4.47;;
78873;SDS011;68250;43.514;1.494;2023-09-12T12:19:07;8.27;;;4.28;;
78873;SDS011;68250;43.514;1.494;2023-09-12T12:21:33;7.45;;;4.30;;
78873;SDS011;68250;43.514;1.494;2023-09-12T12:24:01;6.53;;;3.80;;
78873;SDS011;68250;43.514;1.494;2023-09-12T12:26:28;8.25;;;4.22;;
78873;SDS011;68250;43.514;1.494;2023-09-12T12:28:54;7.70;;;4.32;;
78873;SDS011;68250;43.514;1.494;2023-09-12T12:31:20;8.87;;;4.10;;
78873;SDS011;68250;43.514;1.494;2023-09-12T12:33:49;7.45;;;4.28;;
78873;SDS011;68250;43.514;1.494;2023-09-12T12:36:15;8.65;;;4.40;;
78873;SDS011;68250;43.514;1.494;2023-09-12T12:38:41;12.87;;;4.53;;
78873;SDS011;68250;43.514;1.494;2023-09-12T12:41:09;10.80;;;4.65;;
78873;SDS011;68250;43.514;1.494;2023-09-12T12:43:35;9.10;;;4.10;;
78873;SDS011;68250;43.514;1.494;2023-09-12T12:46:01;9.40;;;4.43;;
78873;SDS011;68250;43.514;1.494;2023-09-12T12:48:33;7.07;;;4.33;;
78873;SDS011;68250;43.514;1.494;2023-09-12T12:51:14;6.32;;;3.67;;
78873;SDS011;68250;43.514;1.494;2023-09-12T12:53:42;7.53;;;3.83;;
78873;SDS011;68250;43.514;1.494;2023-09-12T12:56:11;7.07;;;3.90;;
78873;SDS011;68250;43.514;1.494;2023-09-12T12:58:39;7.10;;;3.90;;
78873;SDS011;68250;43.514;1.494;2023-09-12T13:01:04;7.23;;;4.20;;
78873;SDS011;68250;43.514;1.494;2023-09-12T13:03:30;7.40;;;4.03;;
78873;SDS011;68250;43.514;1.494;2023-09-12T13:05:56;8.45;;;4.50;;
78873;SDS011;68250;43.514;1.494;2023-09-12T13:08:21;6.77;;;4.10;;
78873;SDS011;68250;43.514;1.494;2023-09-12T13:10:47;7.70;;;4.20;;
78873;SDS011;68250;43.514;1.494;2023-09-12T13:13:12;7.00;;;3.83;;
78873;SDS011;68250;43.514;1.494;2023-09-12T13:15:38;8.67;;;4.27;;
78873;SDS011;68250;43.514;1.494;2023-09-12T13:18:03;8.85;;;4.20;;
78873;SDS011;68250;43.514;1.494;2023-09-12T13:20:29;7.40;;;4.07;;
78873;SDS011;68250;43.514;1.494;2023-09-12T13:22:55;6.18;;;3.97;;
78873;SDS011;68250;43.514;1.494;2023-09-12T13:25:20;8.30;;;4.53;;
78873;SDS011;68250;43.514;1.494;2023-09-12T13:27:48;6.57;;;4.00;;
78873;SDS011;68250;43.514;1.494;2023-09-12T13:30:14;7.15;;;3.95;;
78873;SDS011;68250;43.514;1.494;2023-09-12T13:32:40;8.63;;;4.50;;
78873;SDS011;68250;43.514;1.494;2023-09-12T13:35:06;8.65;;;4.25;;
78873;SDS011;68250;43.514;1.494;2023-09-12T13:37:33;7.23;;;4.00;;
78873;SDS011;68250;43.514;1.494;2023-09-12T13:39:58;8.52;;;4.00;;
78873;SDS011;68250;43.514;1.494;2023-09-12T13:42:24;7.77;;;4.37;;
78873;SDS011;68250;43.514;1.494;2023-09-12T13:44:51;8.10;;;4.35;;
78873;SDS011;68250;43.514;1.494;2023-09-12T13:47:17;7.20;;;4.37;;
78873;SDS011;68250;43.514;1.494;2023-09-12T13:49:47;8.30;;;4.55;;
78873;SDS011;68250;43.514;1.494;2023-09-12T13:52:13;9.00;;;4.43;;
78873;SDS011;68250;43.514;1.494;2023-09-12T13:54:39;7.15;;;4.43;;
78873;SDS011;68250;43.514;1.494;2023-09-12T13:57:05;8.17;;;4.50;;
78873;SDS011;68250;43.514;1.494;2023-09-12T13:59:30;9.47;;;4.57;;
78873;SDS011;68250;43.514;1.494;2023-09-12T14:01:56;6.22;;;4.25;;
78873;SDS011;68250;43.514;1.494;2023-09-12T14:04:22;6.37;;;4.50;;
78873;SDS011;68250;43.514;1.494;2023-09-12T14:06:47;7.70;;;4.27;;
78873;SDS011;68250;43.514;1.494;2023-09-12T14:09:13;7.38;;;3.97;;
78873;SDS011;68250;43.514;1.494;2023-09-12T14:11:38;9.50;;;4.70;;
78873;SDS011;68250;43.514;1.494;2023-09-12T14:14:04;6.72;;;4.43;;
78873;SDS011;68250;43.514;1.494;2023-09-12T14:16:31;9.48;;;4.85;;
78873;SDS011;68250;43.514;1.494;2023-09-12T14:18:56;7.73;;;4.80;;
78873;SDS011;68250;43.514;1.494;2023-09-12T14:21:22;7.47;;;4.30;;
78873;SDS011;68250;43.514;1.494;2023-09-12T14:23:47;12.63;;;5.00;;
78873;SDS011;68250;43.514;1.494;2023-09-12T14:26:13;10.93;;;5.10;;
78873;SDS011;68250;43.514;1.494;2023-09-12T14:28:38;9.95;;;4.65;;
78873;SDS011;68250;43.514;1.494;2023-09-12T14:31:04;9.40;;;5.47;;
78873;SDS011;68250;43.514;1.494;2023-09-12T14:33:31;8.13;;;4.78;;
78873;SDS011;68250;43.514;1.494;2023-09-12T14:35:57;8.40;;;4.43;;
78873;SDS011;68250;43.514;1.494;2023-09-12T14:38:22;8.63;;;4.70;;
78873;SDS011;68250;43.514;1.494;2023-09-12T14:40:48;10.10;;;5.43;;
78873;SDS011;68250;43.514;1.494;2023-09-12T14:43:14;8.02;;;4.50;;
78873;SDS011;68250;43.514;1.494;2023-09-12T14:45:39;7.07;;;3.97;;
78873;SDS011;68250;43.514;1.494;2023-09-12T14:48:06;8.47;;;4.83;;
78873;SDS011;68250;43.514;1.494;2023-09-12T14:50:32;7.53;;;4.43;;
78873;SDS011;68250;43.514;1.494;2023-09-12T14:52:58;7.97;;;4.70;;
78873;SDS011;68250;43.514;1.494;2023-09-12T14:55:23;8.73;;;4.97;;
78873;SDS011;68250;43.514;1.494;2023-09-12T14:57:49;7.72;;;4.43;;